sensor_id;sensor_type;location;lat;lon;timestamp;P1;durP1;ratioP1;P2;durP2;ratioP2
3321;SDS011;1673;51.388;7.086;2022-08-01T00:02:00;34.63;;;21.70;;
3321;SDS011;1673;51.388;7.086;2022-08-01T00:04:30;34.17;;;22.33;;
3321;SDS011;1673;51.388;7.086;2022-08-01T00:07:00;32.50;;;19.70;;
3321;SDS011;1673;51.388;7.086;2022-08-01T00:09:30;32.55;;;19.00;;
3321;SDS011;1673;51.388;7.086;2022-08-01T00:11:59;29.47;;;17.80;;
3321;SDS011;1673;51.388;7.086;2022-08-01T00:14:33;28.20;;;18.60;;
3321;SDS011;1673;51.388;7.086;2022-08-01T00:17:03;25.60;;;17.00;;
3321;SDS011;1673;51.388;7.086;2022-08-01T00:19:33;30.35;;;18.75;;
3321;SDS011;1673;51.388;7.086;2022-08-01T00:22:03;29.20;;;18.23;;
3321;SDS011;1673;51.388;7.086;2022-08-01T00:24:33;29.90;;;19.30;;
3321;SDS011;1673;51.388;7.086;2022-08-01T00:27:03;24.70;;;18.48;;
3321;SDS011;1673;51.388;7.086;2022-08-01T00:29:35;26.10;;;18.35;;
3321;SDS011;1673;51.388;7.086;2022-08-01T00:32:25;29.88;;;21.13;;
3321;SDS011;1673;51.388;7.086;2022-08-01T00:34:55;30.45;;;19.35;;
3321;SDS011;1673;51.388;7.086;2022-08-01T00:37:24;29.15;;;20.25;;
3321;SDS011;1673;51.388;7.086;2022-08-01T00:39:54;35.55;;;19.52;;
3321;SDS011;1673;51.388;7.086;2022-08-01T00:42:24;30.65;;;20.70;;
3321;SDS011;1673;51.388;7.086;2022-08-01T00:44:56;33.00;;;20.70;;
3321;SDS011;1673;51.388;7.086;2022-08-01T00:47:26;33.30;;;21.73;;
3321;SDS011;1673;51.388;7.086;2022-08-01T00:49:56;31.20;;;20.92;;
3321;SDS011;1673;51.388;7.086;2022-08-01T00:52:25;39.75;;;23.33;;
3321;SDS011;1673;51.388;7.086;2022-08-01T00:54:55;40.65;;;22.83;;
3321;SDS011;1673;51.388;7.086;2022-08-01T00:57:25;35.85;;;22.67;;
3321;SDS011;1673;51.388;7.086;2022-08-01T01:00:17;43.03;;;23.85;;
3321;SDS011;1673;51.388;7.086;2022-08-01T01:02:52;33.78;;;21.60;;
3321;SDS011;1673;51.388;7.086;2022-08-01T01:05:22;32.80;;;21.20;;
3321;SDS011;1673;51.388;7.086;2022-08-01T01:07:53;35.53;;;21.27;;
3321;SDS011;1673;51.388;7.086;2022-08-01T01:10:28;29.40;;;20.37;;
3321;SDS011;1673;51.388;7.086;2022-08-01T01:13:02;32.37;;;19.37;;
3321;SDS011;1673;51.388;7.086;2022-08-01T01:15:38;30.60;;;19.13;;
3321;SDS011;1673;51.388;7.086;2022-08-01T01:18:11;34.55;;;18.48;;
3321;SDS011;1673;51.388;7.086;2022-08-01T01:20:44;27.60;;;18.25;;
3321;SDS011;1673;51.388;7.086;2022-08-01T01:23:21;29.10;;;17.60;;
3321;SDS011;1673;51.388;7.086;2022-08-01T01:26:04;34.28;;;18.50;;
3321;SDS011;1673;51.388;7.086;2022-08-01T01:28:53;31.10;;;18.92;;
3321;SDS011;1673;51.388;7.086;2022-08-01T01:31:28;35.58;;;19.08;;
3321;SDS011;1673;51.388;7.086;2022-08-01T01:33:58;31.73;;;18.60;;
3321;SDS011;1673;51.388;7.086;2022-08-01T01:36:29;37.83;;;20.05;;
3321;SDS011;1673;51.388;7.086;2022-08-01T01:39:00;34.03;;;18.95;;
3321;SDS011;1673;51.388;7.086;2022-08-01T01:41:30;36.35;;;20.60;;
3321;SDS011;1673;51.388;7.086;2022-08-01T01:44:02;34.33;;;20.10;;
3321;SDS011;1673;51.388;7.086;2022-08-01T01:46:33;42.13;;;22.20;;
3321;SDS011;1673;51.388;7.086;2022-08-01T01:49:05;33.20;;;20.70;;
3321;SDS011;1673;51.388;7.086;2022-08-01T01:51:37;33.17;;;21.07;;
3321;SDS011;1673;51.388;7.086;2022-08-01T01:54:28;32.83;;;21.50;;
3321;SDS011;1673;51.388;7.086;2022-08-01T01:56:58;35.50;;;20.30;;
3321;SDS011;1673;51.388;7.086;2022-08-01T01:59:31;35.67;;;21.20;;
3321;SDS011;1673;51.388;7.086;2022-08-01T02:02:03;32.27;;;19.93;;
3321;SDS011;1673;51.388;7.086;2022-08-01T02:04:35;32.15;;;19.92;;
3321;SDS011;1673;51.388;7.086;2022-08-01T02:07:05;33.13;;;21.00;;
3321;SDS011;1673;51.388;7.086;2022-08-01T02:09:37;41.05;;;22.65;;
3321;SDS011;1673;51.388;7.086;2022-08-01T02:12:07;42.45;;;23.40;;
3321;SDS011;1673;51.388;7.086;2022-08-01T02:14:42;39.42;;;22.38;;
3321;SDS011;1673;51.388;7.086;2022-08-01T02:17:14;36.90;;;23.57;;
3321;SDS011;1673;51.388;7.086;2022-08-01T02:19:45;41.35;;;24.52;;
3321;SDS011;1673;51.388;7.086;2022-08-01T02:22:16;42.83;;;24.17;;
3321;SDS011;1673;51.388;7.086;2022-08-01T02:24:50;45.25;;;24.77;;
3321;SDS011;1673;51.388;7.086;2022-08-01T02:27:24;49.63;;;26.70;;
3321;SDS011;1673;51.388;7.086;2022-08-01T02:30:00;45.95;;;27.40;;
3321;SDS011;1673;51.388;7.086;2022-08-01T02:32:33;43.33;;;25.90;;
3321;SDS011;1673;51.388;7.086;2022-08-01T02:35:09;46.28;;;26.50;;
3321;SDS011;1673;51.388;7.086;2022-08-01T02:37:40;43.53;;;26.70;;
3321;SDS011;1673;51.388;7.086;2022-08-01T02:40:12;45.95;;;25.83;;
3321;SDS011;1673;51.388;7.086;2022-08-01T02:42:44;47.70;;;26.73;;
3321;SDS011;1673;51.388;7.086;2022-08-01T02:45:20;50.27;;;26.60;;
3321;SDS011;1673;51.388;7.086;2022-08-01T02:47:54;45.20;;;25.90;;
3321;SDS011;1673;51.388;7.086;2022-08-01T02:50:27;46.20;;;28.13;;
3321;SDS011;1673;51.388;7.086;2022-08-01T02:52:58;41.87;;;27.43;;
3321;SDS011;1673;51.388;7.086;2022-08-01T02:55:28;42.25;;;26.65;;
3321;SDS011;1673;51.388;7.086;2022-08-01T02:57:58;50.85;;;27.65;;
3321;SDS011;1673;51.388;7.086;2022-08-01T03:00:32;49.22;;;25.85;;
3321;SDS011;1673;51.388;7.086;2022-08-01T03:03:03;47.35;;;26.92;;
3321;SDS011;1673;51.388;7.086;2022-08-01T03:05:35;49.40;;;26.30;;
3321;SDS011;1673;51.388;7.086;2022-08-01T03:08:06;46.55;;;25.70;;
3321;SDS011;1673;51.388;7.086;2022-08-01T03:10:40;47.00;;;25.65;;
3321;SDS011;1673;51.388;7.086;2022-08-01T03:13:12;48.45;;;26.90;;
3321;SDS011;1673;51.388;7.086;2022-08-01T03:15:45;46.75;;;26.75;;
3321;SDS011;1673;51.388;7.086;2022-08-01T03:18:15;47.03;;;26.67;;
3321;SDS011;1673;51.388;7.086;2022-08-01T03:20:46;48.20;;;26.15;;
3321;SDS011;1673;51.388;7.086;2022-08-01T03:23:16;52.40;;;27.95;;
3321;SDS011;1673;51.388;7.086;2022-08-01T03:25:49;51.65;;;26.80;;
3321;SDS011;1673;51.388;7.086;2022-08-01T03:28:20;53.42;;;26.80;;
3321;SDS011;1673;51.388;7.086;2022-08-01T03:30:57;53.08;;;28.00;;
3321;SDS011;1673;51.388;7.086;2022-08-01T03:33:28;49.05;;;27.33;;
3321;SDS011;1673;51.388;7.086;2022-08-01T03:35:58;51.22;;;27.60;;
3321;SDS011;1673;51.388;7.086;2022-08-01T03:38:29;48.95;;;26.65;;
3321;SDS011;1673;51.388;7.086;2022-08-01T03:41:02;49.85;;;27.75;;
3321;SDS011;1673;51.388;7.086;2022-08-01T03:43:38;51.75;;;27.55;;
3321;SDS011;1673;51.388;7.086;2022-08-01T03:46:15;53.97;;;27.85;;
3321;SDS011;1673;51.388;7.086;2022-08-01T03:48:50;54.67;;;27.70;;
3321;SDS011;1673;51.388;7.086;2022-08-01T03:51:23;46.33;;;26.35;;
3321;SDS011;1673;51.388;7.086;2022-08-01T03:53:53;50.33;;;27.33;;
3321;SDS011;1673;51.388;7.086;2022-08-01T03:56:23;55.00;;;27.48;;
3321;SDS011;1673;51.388;7.086;2022-08-01T03:58:53;51.67;;;26.70;;
3321;SDS011;1673;51.388;7.086;2022-08-01T04:01:26;49.65;;;26.77;;
3321;SDS011;1673;51.388;7.086;2022-08-01T04:03:57;48.65;;;27.08;;
3321;SDS011;1673;51.388;7.086;2022-08-01T04:06:28;50.03;;;26.87;;
3321;SDS011;1673;51.388;7.086;2022-08-01T04:08:58;49.53;;;26.88;;
3321;SDS011;1673;51.388;7.086;2022-08-01T04:11:28;50.60;;;28.00;;
3321;SDS011;1673;51.388;7.086;2022-08-01T04:13:59;46.80;;;27.07;;
3321;SDS011;1673;51.388;7.086;2022-08-01T04:16:37;55.85;;;26.52;;
3321;SDS011;1673;51.388;7.086;2022-08-01T04:19:07;52.67;;;27.20;;
3321;SDS011;1673;51.388;7.086;2022-08-01T04:21:37;48.78;;;27.80;;
3321;SDS011;1673;51.388;7.086;2022-08-01T04:24:08;44.72;;;25.77;;
3321;SDS011;1673;51.388;7.086;2022-08-01T04:26:41;53.55;;;27.90;;
3321;SDS011;1673;51.388;7.086;2022-08-01T04:29:13;51.22;;;27.55;;
3321;SDS011;1673;51.388;7.086;2022-08-01T04:31:46;48.00;;;26.65;;
3321;SDS011;1673;51.388;7.086;2022-08-01T04:34:19;47.75;;;27.02;;
3321;SDS011;1673;51.388;7.086;2022-08-01T04:36:51;52.60;;;28.33;;
3321;SDS011;1673;51.388;7.086;2022-08-01T04:39:22;46.97;;;27.27;;
3321;SDS011;1673;51.388;7.086;2022-08-01T04:41:53;52.95;;;28.27;;
3321;SDS011;1673;51.388;7.086;2022-08-01T04:44:24;46.60;;;26.70;;
3321;SDS011;1673;51.388;7.086;2022-08-01T04:47:00;52.93;;;28.07;;
3321;SDS011;1673;51.388;7.086;2022-08-01T04:49:34;52.13;;;27.98;;
3321;SDS011;1673;51.388;7.086;2022-08-01T04:52:14;61.17;;;28.67;;
3321;SDS011;1673;51.388;7.086;2022-08-01T04:54:50;50.40;;;27.65;;
3321;SDS011;1673;51.388;7.086;2022-08-01T04:57:19;47.40;;;26.67;;
3321;SDS011;1673;51.388;7.086;2022-08-01T04:59:49;52.83;;;27.80;;
3321;SDS011;1673;51.388;7.086;2022-08-01T05:02:25;49.10;;;27.85;;
3321;SDS011;1673;51.388;7.086;2022-08-01T05:04:55;54.58;;;27.00;;
3321;SDS011;1673;51.388;7.086;2022-08-01T05:07:25;45.97;;;26.57;;
3321;SDS011;1673;51.388;7.086;2022-08-01T05:09:55;45.03;;;26.45;;
3321;SDS011;1673;51.388;7.086;2022-08-01T05:12:24;50.45;;;26.50;;
3321;SDS011;1673;51.388;7.086;2022-08-01T05:14:54;49.85;;;25.08;;
3321;SDS011;1673;51.388;7.086;2022-08-01T05:17:26;49.87;;;24.87;;
3321;SDS011;1673;51.388;7.086;2022-08-01T05:19:56;43.67;;;25.00;;
3321;SDS011;1673;51.388;7.086;2022-08-01T05:22:26;46.95;;;24.85;;
3321;SDS011;1673;51.388;7.086;2022-08-01T05:24:55;49.22;;;26.25;;
3321;SDS011;1673;51.388;7.086;2022-08-01T05:27:26;44.25;;;24.27;;
3321;SDS011;1673;51.388;7.086;2022-08-01T05:29:56;44.30;;;24.67;;
3321;SDS011;1673;51.388;7.086;2022-08-01T05:32:28;44.70;;;24.13;;
3321;SDS011;1673;51.388;7.086;2022-08-01T05:34:58;43.38;;;23.60;;
3321;SDS011;1673;51.388;7.086;2022-08-01T05:37:28;51.75;;;24.00;;
3321;SDS011;1673;51.388;7.086;2022-08-01T05:39:58;39.88;;;21.77;;
3321;SDS011;1673;51.388;7.086;2022-08-01T05:42:28;39.10;;;21.45;;
3321;SDS011;1673;51.388;7.086;2022-08-01T05:44:57;39.10;;;21.85;;
3321;SDS011;1673;51.388;7.086;2022-08-01T05:47:30;37.15;;;21.50;;
3321;SDS011;1673;51.388;7.086;2022-08-01T05:49:59;36.67;;;20.60;;
3321;SDS011;1673;51.388;7.086;2022-08-01T05:52:29;35.50;;;20.93;;
3321;SDS011;1673;51.388;7.086;2022-08-01T05:54:59;39.50;;;21.67;;
3321;SDS011;1673;51.388;7.086;2022-08-01T05:57:29;39.03;;;21.00;;
3321;SDS011;1673;51.388;7.086;2022-08-01T05:59:58;36.55;;;21.55;;
3321;SDS011;1673;51.388;7.086;2022-08-01T06:02:42;34.95;;;20.05;;
3321;SDS011;1673;51.388;7.086;2022-08-01T06:05:12;38.70;;;21.90;;
3321;SDS011;1673;51.388;7.086;2022-08-01T06:07:42;38.67;;;22.00;;
3321;SDS011;1673;51.388;7.086;2022-08-01T06:10:12;35.00;;;21.20;;
3321;SDS011;1673;51.388;7.086;2022-08-01T06:12:41;36.72;;;22.23;;
3321;SDS011;1673;51.388;7.086;2022-08-01T06:15:11;38.55;;;21.80;;
3321;SDS011;1673;51.388;7.086;2022-08-01T06:17:44;39.53;;;22.40;;
3321;SDS011;1673;51.388;7.086;2022-08-01T06:20:13;34.25;;;20.20;;
3321;SDS011;1673;51.388;7.086;2022-08-01T06:22:43;38.55;;;21.40;;
3321;SDS011;1673;51.388;7.086;2022-08-01T06:25:18;38.30;;;21.17;;
3321;SDS011;1673;51.388;7.086;2022-08-01T06:27:47;34.97;;;20.92;;
3321;SDS011;1673;51.388;7.086;2022-08-01T06:30:17;35.37;;;20.37;;
3321;SDS011;1673;51.388;7.086;2022-08-01T06:32:50;34.63;;;19.58;;
3321;SDS011;1673;51.388;7.086;2022-08-01T06:35:22;37.40;;;21.47;;
3321;SDS011;1673;51.388;7.086;2022-08-01T06:37:51;33.78;;;20.67;;
3321;SDS011;1673;51.388;7.086;2022-08-01T06:40:21;33.38;;;19.88;;
3321;SDS011;1673;51.388;7.086;2022-08-01T06:42:51;35.37;;;20.10;;
3321;SDS011;1673;51.388;7.086;2022-08-01T06:45:21;33.95;;;19.83;;
3321;SDS011;1673;51.388;7.086;2022-08-01T06:47:54;35.60;;;18.27;;
3321;SDS011;1673;51.388;7.086;2022-08-01T06:50:24;34.58;;;19.48;;
3321;SDS011;1673;51.388;7.086;2022-08-01T06:52:54;31.83;;;19.42;;
3321;SDS011;1673;51.388;7.086;2022-08-01T06:55:24;31.15;;;17.52;;
3321;SDS011;1673;51.388;7.086;2022-08-01T06:57:53;29.70;;;18.20;;
3321;SDS011;1673;51.388;7.086;2022-08-01T07:00:23;25.63;;;16.40;;
3321;SDS011;1673;51.388;7.086;2022-08-01T07:02:58;29.27;;;17.30;;
3321;SDS011;1673;51.388;7.086;2022-08-01T07:05:28;26.40;;;16.83;;
3321;SDS011;1673;51.388;7.086;2022-08-01T07:07:58;34.15;;;18.50;;
3321;SDS011;1673;51.388;7.086;2022-08-01T07:10:28;29.05;;;18.42;;
3321;SDS011;1673;51.388;7.086;2022-08-01T07:12:58;30.23;;;19.45;;
3321;SDS011;1673;51.388;7.086;2022-08-01T07:15:27;27.70;;;18.50;;
3321;SDS011;1673;51.388;7.086;2022-08-01T07:18:00;30.52;;;18.05;;
3321;SDS011;1673;51.388;7.086;2022-08-01T07:20:31;27.63;;;17.10;;
3321;SDS011;1673;51.388;7.086;2022-08-01T07:23:17;23.52;;;16.17;;
3321;SDS011;1673;51.388;7.086;2022-08-01T07:25:48;19.63;;;13.98;;
3321;SDS011;1673;51.388;7.086;2022-08-01T07:28:23;22.13;;;13.15;;
3321;SDS011;1673;51.388;7.086;2022-08-01T07:30:53;19.27;;;13.45;;
3321;SDS011;1673;51.388;7.086;2022-08-01T07:33:25;17.45;;;11.52;;
3321;SDS011;1673;51.388;7.086;2022-08-01T07:36:14;20.55;;;12.80;;
3321;SDS011;1673;51.388;7.086;2022-08-01T07:38:44;17.40;;;11.10;;
3321;SDS011;1673;51.388;7.086;2022-08-01T07:41:15;16.48;;;10.65;;
3321;SDS011;1673;51.388;7.086;2022-08-01T07:43:45;13.98;;;9.65;;
3321;SDS011;1673;51.388;7.086;2022-08-01T07:46:23;12.65;;;7.65;;
3321;SDS011;1673;51.388;7.086;2022-08-01T07:48:55;11.30;;;6.43;;
3321;SDS011;1673;51.388;7.086;2022-08-01T07:51:25;10.77;;;7.10;;
3321;SDS011;1673;51.388;7.086;2022-08-01T07:53:55;13.40;;;7.20;;
3321;SDS011;1673;51.388;7.086;2022-08-01T07:56:24;11.52;;;6.38;;
3321;SDS011;1673;51.388;7.086;2022-08-01T07:58:54;13.27;;;6.65;;
3321;SDS011;1673;51.388;7.086;2022-08-01T08:01:24;9.85;;;5.90;;
3321;SDS011;1673;51.388;7.086;2022-08-01T08:03:56;12.00;;;6.30;;
3321;SDS011;1673;51.388;7.086;2022-08-01T08:06:26;9.25;;;5.50;;
3321;SDS011;1673;51.388;7.086;2022-08-01T08:08:55;7.18;;;5.10;;
3321;SDS011;1673;51.388;7.086;2022-08-01T08:11:25;10.48;;;7.65;;
3321;SDS011;1673;51.388;7.086;2022-08-01T08:13:55;11.82;;;8.43;;
3321;SDS011;1673;51.388;7.086;2022-08-01T08:16:25;13.93;;;9.00;;
3321;SDS011;1673;51.388;7.086;2022-08-01T08:18:57;11.50;;;8.10;;
3321;SDS011;1673;51.388;7.086;2022-08-01T08:21:27;10.52;;;7.55;;
3321;SDS011;1673;51.388;7.086;2022-08-01T08:23:57;11.13;;;7.57;;
3321;SDS011;1673;51.388;7.086;2022-08-01T08:26:39;10.40;;;7.68;;
3321;SDS011;1673;51.388;7.086;2022-08-01T08:29:08;11.90;;;7.70;;
3321;SDS011;1673;51.388;7.086;2022-08-01T08:31:38;10.80;;;8.25;;
3321;SDS011;1673;51.388;7.086;2022-08-01T08:34:20;11.05;;;8.13;;
3321;SDS011;1673;51.388;7.086;2022-08-01T08:36:50;11.98;;;7.70;;
3321;SDS011;1673;51.388;7.086;2022-08-01T08:39:21;12.82;;;8.80;;
3321;SDS011;1673;51.388;7.086;2022-08-01T08:41:51;15.98;;;9.02;;
3321;SDS011;1673;51.388;7.086;2022-08-01T08:44:20;11.00;;;8.65;;
3321;SDS011;1673;51.388;7.086;2022-08-01T08:46:50;9.93;;;7.82;;
3321;SDS011;1673;51.388;7.086;2022-08-01T08:49:26;9.35;;;7.40;;
3321;SDS011;1673;51.388;7.086;2022-08-01T08:52:03;8.93;;;6.63;;
3321;SDS011;1673;51.388;7.086;2022-08-01T08:54:34;8.93;;;6.40;;
3321;SDS011;1673;51.388;7.086;2022-08-01T08:57:06;10.88;;;6.55;;
3321;SDS011;1673;51.388;7.086;2022-08-01T08:59:37;9.25;;;6.60;;
3321;SDS011;1673;51.388;7.086;2022-08-01T09:02:07;9.88;;;6.68;;
3321;SDS011;1673;51.388;7.086;2022-08-01T09:04:40;11.05;;;7.60;;
3321;SDS011;1673;51.388;7.086;2022-08-01T09:07:10;7.60;;;6.40;;
3321;SDS011;1673;51.388;7.086;2022-08-01T09:09:40;7.25;;;6.45;;
3321;SDS011;1673;51.388;7.086;2022-08-01T09:12:10;8.48;;;7.10;;
3321;SDS011;1673;51.388;7.086;2022-08-01T09:14:44;9.90;;;7.18;;
3321;SDS011;1673;51.388;7.086;2022-08-01T09:17:16;9.30;;;7.10;;
3321;SDS011;1673;51.388;7.086;2022-08-01T09:19:49;10.93;;;8.48;;
3321;SDS011;1673;51.388;7.086;2022-08-01T09:22:23;15.15;;;8.40;;
3321;SDS011;1673;51.388;7.086;2022-08-01T09:24:57;10.60;;;8.60;;
3321;SDS011;1673;51.388;7.086;2022-08-01T09:27:28;9.27;;;8.00;;
3321;SDS011;1673;51.388;7.086;2022-08-01T09:30:07;11.60;;;9.00;;
3321;SDS011;1673;51.388;7.086;2022-08-01T09:32:54;12.27;;;10.70;;
3321;SDS011;1673;51.388;7.086;2022-08-01T09:35:30;12.10;;;8.60;;
3321;SDS011;1673;51.388;7.086;2022-08-01T09:38:13;11.20;;;8.68;;
3321;SDS011;1673;51.388;7.086;2022-08-01T09:40:44;12.05;;;8.70;;
3321;SDS011;1673;51.388;7.086;2022-08-01T09:43:17;10.60;;;7.95;;
3321;SDS011;1673;51.388;7.086;2022-08-01T09:45:47;8.95;;;7.22;;
3321;SDS011;1673;51.388;7.086;2022-08-01T09:48:19;8.00;;;5.60;;
3321;SDS011;1673;51.388;7.086;2022-08-01T09:50:58;5.93;;;4.60;;
3321;SDS011;1673;51.388;7.086;2022-08-01T09:53:41;5.20;;;4.03;;
3321;SDS011;1673;51.388;7.086;2022-08-01T09:56:18;5.07;;;3.70;;
3321;SDS011;1673;51.388;7.086;2022-08-01T09:58:49;4.95;;;4.30;;
3321;SDS011;1673;51.388;7.086;2022-08-01T10:01:25;4.90;;;4.40;;
3321;SDS011;1673;51.388;7.086;2022-08-01T10:04:04;4.57;;;4.10;;
3321;SDS011;1673;51.388;7.086;2022-08-01T10:06:39;4.50;;;3.90;;
3321;SDS011;1673;51.388;7.086;2022-08-01T10:09:11;4.15;;;3.40;;
3321;SDS011;1673;51.388;7.086;2022-08-01T10:11:42;5.40;;;3.30;;
3321;SDS011;1673;51.388;7.086;2022-08-01T10:14:13;5.60;;;3.10;;
3321;SDS011;1673;51.388;7.086;2022-08-01T10:16:46;4.63;;;2.80;;
3321;SDS011;1673;51.388;7.086;2022-08-01T10:19:22;2.60;;;2.10;;
3321;SDS011;1673;51.388;7.086;2022-08-01T10:21:57;4.40;;;3.10;;
3321;SDS011;1673;51.388;7.086;2022-08-01T10:24:27;5.00;;;2.72;;
3321;SDS011;1673;51.388;7.086;2022-08-01T10:27:01;3.40;;;2.80;;
3321;SDS011;1673;51.388;7.086;2022-08-01T10:29:36;3.25;;;2.33;;
3321;SDS011;1673;51.388;7.086;2022-08-01T10:32:25;3.60;;;2.60;;
3321;SDS011;1673;51.388;7.086;2022-08-01T10:34:54;3.92;;;2.70;;
3321;SDS011;1673;51.388;7.086;2022-08-01T10:37:35;3.20;;;2.33;;
3321;SDS011;1673;51.388;7.086;2022-08-01T10:40:18;3.65;;;2.15;;
3321;SDS011;1673;51.388;7.086;2022-08-01T10:42:57;5.93;;;2.42;;
3321;SDS011;1673;51.388;7.086;2022-08-01T10:45:27;5.07;;;3.60;;
3321;SDS011;1673;51.388;7.086;2022-08-01T10:47:58;6.07;;;3.85;;
3321;SDS011;1673;51.388;7.086;2022-08-01T10:50:32;5.70;;;4.03;;
3321;SDS011;1673;51.388;7.086;2022-08-01T10:53:09;7.53;;;4.82;;
3321;SDS011;1673;51.388;7.086;2022-08-01T10:55:50;5.33;;;4.83;;
3321;SDS011;1673;51.388;7.086;2022-08-01T10:58:25;7.22;;;5.70;;
3321;SDS011;1673;51.388;7.086;2022-08-01T11:04:01;9.25;;;3.72;;
3321;SDS011;1673;51.388;7.086;2022-08-01T11:09:29;3.58;;;2.80;;
3321;SDS011;1673;51.388;7.086;2022-08-01T11:12:04;3.60;;;3.00;;
3321;SDS011;1673;51.388;7.086;2022-08-01T11:17:55;2.70;;;2.20;;
3321;SDS011;1673;51.388;7.086;2022-08-01T11:20:26;4.78;;;2.25;;
3321;SDS011;1673;51.388;7.086;2022-08-01T11:26:10;4.22;;;2.40;;
3321;SDS011;1673;51.388;7.086;2022-08-01T11:28:44;3.20;;;2.28;;
3321;SDS011;1673;51.388;7.086;2022-08-01T11:31:35;5.60;;;2.40;;
3321;SDS011;1673;51.388;7.086;2022-08-01T11:34:05;3.70;;;2.58;;
3321;SDS011;1673;51.388;7.086;2022-08-01T11:36:35;4.13;;;2.95;;
3321;SDS011;1673;51.388;7.086;2022-08-01T11:39:24;3.10;;;2.60;;
3321;SDS011;1673;51.388;7.086;2022-08-01T11:41:57;3.30;;;3.00;;
3321;SDS011;1673;51.388;7.086;2022-08-01T11:44:47;4.40;;;3.10;;
3321;SDS011;1673;51.388;7.086;2022-08-01T11:47:18;2.70;;;2.10;;
3321;SDS011;1673;51.388;7.086;2022-08-01T11:49:55;2.23;;;1.53;;
3321;SDS011;1673;51.388;7.086;2022-08-01T11:52:26;1.77;;;1.30;;
3321;SDS011;1673;51.388;7.086;2022-08-01T11:55:05;2.55;;;1.27;;
3321;SDS011;1673;51.388;7.086;2022-08-01T11:57:44;4.10;;;1.20;;
3321;SDS011;1673;51.388;7.086;2022-08-01T12:00:15;2.08;;;1.50;;
3321;SDS011;1673;51.388;7.086;2022-08-01T12:02:46;1.70;;;1.30;;
3321;SDS011;1673;51.388;7.086;2022-08-01T12:05:18;2.00;;;1.30;;
3321;SDS011;1673;51.388;7.086;2022-08-01T12:07:52;2.67;;;1.30;;
3321;SDS011;1673;51.388;7.086;2022-08-01T12:10:23;1.80;;;1.50;;
3321;SDS011;1673;51.388;7.086;2022-08-01T12:12:59;1.97;;;1.43;;
3321;SDS011;1673;51.388;7.086;2022-08-01T12:15:29;3.60;;;2.00;;
3321;SDS011;1673;51.388;7.086;2022-08-01T12:18:00;3.70;;;2.00;;
3321;SDS011;1673;51.388;7.086;2022-08-01T12:20:31;2.50;;;1.80;;
3321;SDS011;1673;51.388;7.086;2022-08-01T12:23:06;2.60;;;1.80;;
3321;SDS011;1673;51.388;7.086;2022-08-01T12:25:37;2.75;;;1.70;;
3321;SDS011;1673;51.388;7.086;2022-08-01T12:28:12;2.50;;;2.00;;
3321;SDS011;1673;51.388;7.086;2022-08-01T12:30:46;5.50;;;2.10;;
3321;SDS011;1673;51.388;7.086;2022-08-01T12:33:17;2.58;;;1.80;;
3321;SDS011;1673;51.388;7.086;2022-08-01T12:35:48;2.60;;;1.73;;
3321;SDS011;1673;51.388;7.086;2022-08-01T12:38:19;1.75;;;1.50;;
3321;SDS011;1673;51.388;7.086;2022-08-01T12:40:51;3.58;;;1.88;;
3321;SDS011;1673;51.388;7.086;2022-08-01T12:43:27;2.33;;;2.03;;
3321;SDS011;1673;51.388;7.086;2022-08-01T12:46:00;3.10;;;2.20;;
3321;SDS011;1673;51.388;7.086;2022-08-01T12:48:31;2.20;;;2.00;;
3321;SDS011;1673;51.388;7.086;2022-08-01T12:51:02;4.88;;;2.35;;
3321;SDS011;1673;51.388;7.086;2022-08-01T12:53:34;5.13;;;2.30;;
3321;SDS011;1673;51.388;7.086;2022-08-01T12:56:07;2.55;;;2.28;;
3321;SDS011;1673;51.388;7.086;2022-08-01T12:58:40;3.40;;;2.13;;
3321;SDS011;1673;51.388;7.086;2022-08-01T13:01:10;3.40;;;2.00;;
3321;SDS011;1673;51.388;7.086;2022-08-01T13:03:40;3.70;;;2.40;;
3321;SDS011;1673;51.388;7.086;2022-08-01T13:06:10;3.40;;;2.05;;
3321;SDS011;1673;51.388;7.086;2022-08-01T13:08:42;3.70;;;2.10;;
3321;SDS011;1673;51.388;7.086;2022-08-01T13:11:13;4.87;;;1.90;;
3321;SDS011;1673;51.388;7.086;2022-08-01T13:13:48;3.13;;;2.28;;
3321;SDS011;1673;51.388;7.086;2022-08-01T13:16:20;2.50;;;2.05;;
3321;SDS011;1673;51.388;7.086;2022-08-01T13:19:03;2.45;;;1.88;;
3321;SDS011;1673;51.388;7.086;2022-08-01T13:21:34;2.10;;;1.67;;
3321;SDS011;1673;51.388;7.086;2022-08-01T13:24:23;3.20;;;1.70;;
3321;SDS011;1673;51.388;7.086;2022-08-01T13:26:55;2.50;;;1.90;;
3321;SDS011;1673;51.388;7.086;2022-08-01T13:29:33;3.30;;;2.40;;
3321;SDS011;1673;51.388;7.086;2022-08-01T13:32:14;2.90;;;2.10;;
3321;SDS011;1673;51.388;7.086;2022-08-01T13:35:01;2.13;;;1.70;;
3321;SDS011;1673;51.388;7.086;2022-08-01T13:37:32;2.80;;;1.75;;
3321;SDS011;1673;51.388;7.086;2022-08-01T13:40:05;2.90;;;1.63;;
3321;SDS011;1673;51.388;7.086;2022-08-01T13:42:35;4.18;;;1.50;;
3321;SDS011;1673;51.388;7.086;2022-08-01T13:45:08;2.50;;;1.60;;
3321;SDS011;1673;51.388;7.086;2022-08-01T13:47:40;2.60;;;1.80;;
3321;SDS011;1673;51.388;7.086;2022-08-01T13:50:30;1.90;;;1.60;;
3321;SDS011;1673;51.388;7.086;2022-08-01T13:53:00;2.70;;;2.10;;
3321;SDS011;1673;51.388;7.086;2022-08-01T13:55:30;2.42;;;1.80;;
3321;SDS011;1673;51.388;7.086;2022-08-01T13:58:01;2.92;;;1.83;;
3321;SDS011;1673;51.388;7.086;2022-08-01T14:00:34;3.47;;;2.10;;
3321;SDS011;1673;51.388;7.086;2022-08-01T14:03:03;3.30;;;1.97;;
3321;SDS011;1673;51.388;7.086;2022-08-01T14:05:35;5.60;;;2.22;;
3321;SDS011;1673;51.388;7.086;2022-08-01T14:08:05;4.10;;;1.90;;
3321;SDS011;1673;51.388;7.086;2022-08-01T14:10:36;3.42;;;2.00;;
3321;SDS011;1673;51.388;7.086;2022-08-01T14:13:08;3.30;;;2.13;;
3321;SDS011;1673;51.388;7.086;2022-08-01T14:15:42;3.15;;;1.92;;
3321;SDS011;1673;51.388;7.086;2022-08-01T14:18:12;3.90;;;1.80;;
3321;SDS011;1673;51.388;7.086;2022-08-01T14:20:41;2.63;;;2.00;;
3321;SDS011;1673;51.388;7.086;2022-08-01T14:23:12;2.50;;;1.70;;
3321;SDS011;1673;51.388;7.086;2022-08-01T14:25:42;3.10;;;1.90;;
3321;SDS011;1673;51.388;7.086;2022-08-01T14:28:31;3.65;;;2.45;;
3321;SDS011;1673;51.388;7.086;2022-08-01T14:31:03;3.88;;;2.10;;
3321;SDS011;1673;51.388;7.086;2022-08-01T14:33:34;2.90;;;2.00;;
3321;SDS011;1673;51.388;7.086;2022-08-01T14:36:04;5.75;;;2.10;;
3321;SDS011;1673;51.388;7.086;2022-08-01T14:38:54;2.90;;;2.20;;
3321;SDS011;1673;51.388;7.086;2022-08-01T14:41:26;4.20;;;2.10;;
3321;SDS011;1673;51.388;7.086;2022-08-01T14:43:56;2.30;;;1.90;;
3321;SDS011;1673;51.388;7.086;2022-08-01T14:46:28;3.03;;;2.03;;
3321;SDS011;1673;51.388;7.086;2022-08-01T14:48:59;1.80;;;1.42;;
3321;SDS011;1673;51.388;7.086;2022-08-01T14:51:29;2.50;;;1.73;;
3321;SDS011;1673;51.388;7.086;2022-08-01T14:54:01;2.10;;;1.80;;
3321;SDS011;1673;51.388;7.086;2022-08-01T14:56:30;2.90;;;1.77;;
3321;SDS011;1673;51.388;7.086;2022-08-01T14:59:00;2.75;;;1.90;;
3321;SDS011;1673;51.388;7.086;2022-08-01T15:01:49;2.40;;;2.00;;
3321;SDS011;1673;51.388;7.086;2022-08-01T15:04:19;2.97;;;2.10;;
3321;SDS011;1673;51.388;7.086;2022-08-01T15:06:48;3.35;;;2.10;;
3321;SDS011;1673;51.388;7.086;2022-08-01T15:09:18;2.90;;;1.70;;
3321;SDS011;1673;51.388;7.086;2022-08-01T15:11:49;3.05;;;2.20;;
3321;SDS011;1673;51.388;7.086;2022-08-01T15:14:19;3.67;;;2.00;;
3321;SDS011;1673;51.388;7.086;2022-08-01T15:17:03;5.90;;;2.40;;
3321;SDS011;1673;51.388;7.086;2022-08-01T15:19:34;2.73;;;2.00;;
3321;SDS011;1673;51.388;7.086;2022-08-01T15:22:08;3.72;;;2.10;;
3321;SDS011;1673;51.388;7.086;2022-08-01T15:24:38;3.42;;;2.20;;
3321;SDS011;1673;51.388;7.086;2022-08-01T15:27:08;4.63;;;2.30;;
3321;SDS011;1673;51.388;7.086;2022-08-01T15:29:38;5.03;;;2.10;;
3321;SDS011;1673;51.388;7.086;2022-08-01T15:32:11;4.10;;;2.50;;
3321;SDS011;1673;51.388;7.086;2022-08-01T15:34:41;4.22;;;2.10;;
3321;SDS011;1673;51.388;7.086;2022-08-01T15:37:12;6.35;;;2.78;;
3321;SDS011;1673;51.388;7.086;2022-08-01T15:39:44;5.85;;;2.60;;
3321;SDS011;1673;51.388;7.086;2022-08-01T15:42:15;5.18;;;2.50;;
3321;SDS011;1673;51.388;7.086;2022-08-01T15:44:52;3.10;;;2.20;;
3321;SDS011;1673;51.388;7.086;2022-08-01T15:47:24;4.60;;;2.70;;